Time;durP1;ratioP1;P1;durP2;ratioP2;P2;SDS_P1;SDS_P2;PMS_P1;PMS_P2;Temp;Humidity;BMP_temperature;BMP_pressure;BME280_temperature;BME280_humidity;BME280_pressure;Samples;Min_cycle;Max_cycle;Signal;HPM_P1;HPM_P2
2023/05/04 00:02:02;;;;;;;8.27;5.43;;;;;;;10.33;63.65;96033.63;6189542;23;20162;-87
2023/05/04 00:04:27;;;;;;;8.30;5.93;;;;;;;10.34;63.76;96035.31;6164989;23;20161;-85
2023/05/04 00:06:52;;;;;;;7.90;5.63;;;;;;;10.27;64.25;96030.78;6164080;23;20158;-86
2023/05/04 00:09:18;;;;;;;6.20;5.10;;;;;;;10.20;64.15;96028.66;6164639;23;20181;-86
2023/05/04 00:11:43;;;;;;;8.93;5.97;;;;;;;10.17;64.45;96021.16;6164307;23;20501;-87
2023/05/04 00:14:08;;;;;;;9.77;5.87;;;;;;;10.20;64.67;96017.47;6190003;23;20700;-84
2023/05/04 00:16:35;;;;;;;6.83;5.27;;;;;;;10.23;64.62;96012.03;6163960;23;20182;-83
2023/05/04 00:19:00;;;;;;;9.47;5.93;;;;;;;10.13;64.47;96017.19;6165917;23;20178;-87
2023/05/04 00:21:26;;;;;;;6.87;6.17;;;;;;;10.09;64.46;96017.59;6166095;23;20158;-87
2023/05/04 00:23:51;;;;;;;8.50;5.10;;;;;;;10.05;64.73;96011.00;6166293;23;20158;-87
2023/05/04 00:26:16;;;;;;;6.27;5.67;;;;;;;10.07;64.62;96009.94;6166076;23;20154;-84
2023/05/04 00:28:42;;;;;;;9.50;5.70;;;;;;;9.93;64.76;96010.31;6165234;23;20521;-85
2023/05/04 00:31:07;;;;;;;9.67;5.90;;;;;;;10.09;64.41;96009.81;6165120;23;20158;-85
2023/05/04 00:33:32;;;;;;;7.20;6.23;;;;;;;10.03;64.57;96011.16;6165476;23;20418;-85
2023/05/04 00:35:58;;;;;;;6.60;5.27;;;;;;;10.05;64.24;96008.41;6165016;23;20244;-83
2023/05/04 00:38:23;;;;;;;8.80;6.57;;;;;;;9.97;64.38;96011.66;6165897;23;20209;-86
2023/05/04 00:40:57;;;;;;;7.10;5.47;;;;;;;9.92;64.58;96003.47;6165318;23;20192;-84
2023/05/04 00:43:23;;;;;;;6.93;5.47;;;;;;;9.87;64.91;96009.06;6189811;23;20153;-85
2023/05/04 00:45:48;;;;;;;10.43;6.00;;;;;;;9.82;64.89;95998.25;6165182;23;20182;-85
2023/05/04 00:48:14;;;;;;;8.77;5.87;;;;;;;9.74;65.00;95997.28;6164547;23;20162;-84
2023/05/04 00:50:42;;;;;;;7.47;6.10;;;;;;;9.73;65.09;95998.25;6190372;23;20168;-86
2023/05/04 00:53:08;;;;;;;7.77;5.83;;;;;;;9.70;65.32;96001.88;6165818;23;20169;-85
2023/05/04 00:55:39;;;;;;;8.63;6.37;;;;;;;9.67;65.48;95996.97;6164793;23;20500;-85
2023/05/04 00:58:06;;;;;;;8.03;5.83;;;;;;;9.68;65.44;95993.44;6164566;23;20150;-84
2023/05/04 01:00:32;;;;;;;6.53;5.77;;;;;;;9.65;65.13;95991.94;6189912;23;20229;-86
2023/05/04 01:02:57;;;;;;;6.73;5.53;;;;;;;9.61;65.34;95995.72;6189605;23;20181;-84
2023/05/04 01:05:23;;;;;;;9.30;5.27;;;;;;;9.67;65.41;95994.38;6165281;23;20683;-85
2023/05/04 01:08:15;;;;;;;6.27;5.40;;;;;;;9.61;65.37;95984.53;6163949;23;20162;-86
2023/05/04 01:11:09;;;;;;;6.83;5.47;;;;;;;9.59;65.81;95986.44;6165688;23;20157;-86
2023/05/04 01:13:36;;;;;;;8.40;5.73;;;;;;;9.59;65.53;95986.44;6163053;23;20240;-85
2023/05/04 01:16:02;;;;;;;6.23;5.57;;;;;;;9.50;65.81;95984.63;6188432;23;20176;-85
2023/05/04 01:18:27;;;;;;;8.00;5.87;;;;;;;9.46;65.87;95978.91;6189930;23;20188;-85
2023/05/04 01:20:52;;;;;;;8.53;5.80;;;;;;;9.50;66.11;95987.22;6165262;23;20193;-85
2023/05/04 01:23:18;;;;;;;9.00;5.73;;;;;;;9.51;65.94;95983.66;6189844;23;20157;-85
2023/05/04 01:26:06;;;;;;;13.47;5.90;;;;;;;9.50;66.05;95976.84;6189731;23;20218;-84
2023/05/04 01:28:47;;;;;;;7.60;5.80;;;;;;;9.44;65.83;95985.97;6164767;23;20178;-85
2023/05/04 01:31:14;;;;;;;7.43;5.83;;;;;;;9.44;65.94;95985.97;6165109;23;20158;-86
2023/05/04 01:33:40;;;;;;;6.23;5.53;;;;;;;9.43;66.31;95989.50;6165168;23;20158;-84
2023/05/04 01:36:06;;;;;;;7.00;5.77;;;;;;;9.45;66.43;95997.16;6164196;23;20197;-86
2023/05/04 01:38:31;;;;;;;7.47;5.87;;;;;;;9.39;66.45;95989.91;6189570;23;20232;-86
2023/05/04 01:40:56;;;;;;;10.30;5.63;;;;;;;9.27;66.76;95987.38;6165930;23;20157;-84
2023/05/04 01:43:22;;;;;;;7.13;5.43;;;;;;;9.28;66.68;95989.03;6190288;23;20186;-86
2023/05/04 01:45:48;;;;;;;7.33;6.00;;;;;;;9.21;67.15;95982.72;6163882;23;20169;-85
2023/05/04 01:48:13;;;;;;;8.23;5.70;;;;;;;9.28;67.09;95993.41;6164530;23;20169;-84
2023/05/04 01:50:38;;;;;;;7.87;5.60;;;;;;;9.23;67.06;95985.19;6165212;23;20164;-86
2023/05/04 01:53:04;;;;;;;6.77;6.07;;;;;;;9.16;66.99;95989.22;6164713;23;20165;-85
2023/05/04 01:55:30;;;;;;;11.93;6.33;;;;;;;9.21;67.37;95981.91;6164179;23;20178;-86
2023/05/04 01:57:55;;;;;;;5.93;5.33;;;;;;;9.21;67.48;95981.91;6188673;23;20158;-85
2023/05/04 02:00:21;;;;;;;7.03;6.33;;;;;;;9.17;67.93;95976.13;6188635;23;20173;-86
2023/05/04 02:02:46;;;;;;;8.57;6.13;;;;;;;9.16;67.56;95974.50;6164635;23;20531;-87
2023/05/04 02:05:12;;;;;;;10.27;7.60;;;;;;;9.18;68.18;95977.78;6189204;23;20512;-87
2023/05/04 02:07:37;;;;;;;8.90;7.40;;;;;;;9.16;68.10;95974.50;6163501;23;20162;-87
2023/05/04 02:10:03;;;;;;;8.20;6.87;;;;;;;9.22;68.41;95973.19;6188900;23;20724;-86
2023/05/04 02:12:28;;;;;;;9.07;7.40;;;;;;;9.22;68.53;95974.00;6188978;23;20160;-86
2023/05/04 02:14:53;;;;;;;8.20;7.17;;;;;;;9.21;68.88;95972.38;6164516;23;20536;-87
2023/05/04 02:17:18;;;;;;;8.10;7.13;;;;;;;9.19;68.83;95976.84;6163275;23;20186;-87
2023/05/04 02:19:44;;;;;;;7.60;6.80;;;;;;;9.11;69.08;95971.50;6163865;23;20509;-85
2023/05/04 02:22:09;;;;;;;9.83;7.83;;;;;;;9.09;69.11;95970.78;6214176;23;20564;-86
2023/05/04 02:24:35;;;;;;;10.53;8.07;;;;;;;9.06;69.50;95973.63;6167653;23;20154;-86
2023/05/04 02:27:00;;;;;;;12.73;8.90;;;;;;;9.05;69.92;95987.53;6170895;23;20227;-87
2023/05/04 02:29:26;;;;;;;13.17;9.47;;;;;;;8.98;70.41;95976.84;6195762;23;20182;-86
2023/05/04 02:31:51;;;;;;;9.77;8.60;;;;;;;8.95;70.56;95978.91;6166936;23;20216;-86
2023/05/04 02:34:17;;;;;;;10.30;7.80;;;;;;;8.97;70.99;95977.81;6164163;23;20158;-85
2023/05/04 02:36:42;;;;;;;11.90;8.43;;;;;;;8.94;71.51;95969.47;6163120;23;20177;-87
2023/05/04 02:39:07;;;;;;;11.63;8.13;;;;;;;8.94;71.08;95964.31;6188861;23;20196;-86
2023/05/04 02:41:33;;;;;;;9.73;7.80;;;;;;;8.93;71.76;95967.84;6163507;23;20162;-86
2023/05/04 02:43:58;;;;;;;9.13;8.13;;;;;;;8.93;71.81;95973.84;6215604;23;20154;-87
2023/05/04 02:46:25;;;;;;;9.93;8.07;;;;;;;8.91;72.34;95965.34;6188195;23;20212;-87
2023/05/04 02:48:51;;;;;;;10.67;9.33;;;;;;;8.91;72.05;95974.91;6165101;23;20181;-85
2023/05/04 02:51:17;;;;;;;12.03;8.90;;;;;;;8.85;72.05;95970.25;6164271;23;20170;-86
2023/05/04 02:53:43;;;;;;;11.10;9.17;;;;;;;8.89;72.61;95974.22;6189583;23;20161;-85
2023/05/04 02:56:08;;;;;;;11.50;9.27;;;;;;;8.85;72.63;95972.84;6163140;23;20178;-87
2023/05/04 02:58:34;;;;;;;12.17;9.73;;;;;;;8.88;73.12;95975.97;6164709;23;20177;-87
2023/05/04 03:00:59;;;;;;;12.13;10.37;;;;;;;8.78;73.13;95975.91;6189558;23;20203;-86
2023/05/04 03:03:25;;;;;;;13.93;10.20;;;;;;;8.79;73.48;95971.56;6189878;23;20154;-87
2023/05/04 03:05:50;;;;;;;13.23;10.63;;;;;;;8.77;73.68;95976.06;6163262;23;20636;-86
2023/05/04 03:08:15;;;;;;;11.80;9.77;;;;;;;8.71;73.67;95963.59;6188407;23;20162;-86
2023/05/04 03:10:41;;;;;;;12.60;9.93;;;;;;;8.71;73.96;95967.00;6163990;23;20212;-87
2023/05/04 03:13:06;;;;;;;13.73;10.37;;;;;;;8.66;74.26;95966.56;6164647;23;20160;-86
2023/05/04 03:15:32;;;;;;;14.73;10.90;;;;;;;8.67;74.75;95968.22;6188873;23;20170;-86
2023/05/04 03:17:57;;;;;;;13.23;11.40;;;;;;;8.64;74.95;95965.03;6162821;23;20158;-87
2023/05/04 03:20:27;;;;;;;13.03;9.97;;;;;;;8.60;75.37;95964.47;6188091;23;20580;-86
2023/05/04 03:22:52;;;;;;;16.07;11.03;;;;;;;8.63;75.60;95960.81;6163565;23;20154;-87
2023/05/04 03:25:17;;;;;;;12.63;10.70;;;;;;;8.58;75.53;95961.22;6188373;23;20623;-88
2023/05/04 03:27:43;;;;;;;13.77;11.83;;;;;;;8.59;76.08;95951.66;6187184;23;20165;-87
2023/05/04 03:30:09;;;;;;;13.17;11.50;;;;;;;8.64;76.37;95959.88;6163360;23;20178;-85
2023/05/04 03:32:35;;;;;;;13.80;11.03;;;;;;;8.63;76.05;95955.63;6163225;23;20232;-87
2023/05/04 03:35:00;;;;;;;13.00;11.47;;;;;;;8.56;76.37;95954.50;6188252;23;20600;-86
2023/05/04 03:37:25;;;;;;;13.97;12.47;;;;;;;8.57;76.64;95950.94;6187508;23;20161;-85
2023/05/04 03:39:51;;;;;;;14.27;12.23;;;;;;;8.51;77.06;95953.09;6163075;23;20181;-86
2023/05/04 03:42:16;;;;;;;13.53;12.07;;;;;;;8.56;76.98;95954.50;6188451;23;20162;-87
2023/05/04 03:44:41;;;;;;;15.83;12.93;;;;;;;8.58;76.97;95945.66;6187568;23;20154;-87
2023/05/04 03:47:07;;;;;;;14.77;12.00;;;;;;;8.61;77.16;95945.41;6162787;23;20154;-86
2023/05/04 03:49:33;;;;;;;15.07;12.47;;;;;;;8.62;77.55;95939.28;6162956;23;20654;-85
2023/05/04 03:51:58;;;;;;;15.63;12.33;;;;;;;8.65;77.07;95935.63;6189632;23;20513;-85
2023/05/04 03:54:25;;;;;;;14.93;12.43;;;;;;;8.69;77.56;95945.59;6208290;23;20166;-85
2023/05/04 03:56:50;;;;;;;16.50;13.43;;;;;;;8.63;77.30;95943.50;6164367;23;20174;-86
2023/05/04 03:59:16;;;;;;;16.30;13.30;;;;;;;8.65;78.04;95944.19;6189526;23;20181;-85
2023/05/04 04:01:41;;;;;;;16.47;12.67;;;;;;;8.71;78.04;95941.13;6189908;23;20157;-86
2023/05/04 04:04:06;;;;;;;15.40;13.00;;;;;;;8.70;78.27;95934.28;6189665;23;20154;-86
2023/05/04 04:06:32;;;;;;;18.20;12.90;;;;;;;8.70;78.14;95936.88;6163703;23;20580;-86
2023/05/04 04:09:00;;;;;;;14.93;12.77;;;;;;;8.74;77.69;95935.66;6164718;23;20178;-86
2023/05/04 04:11:25;;;;;;;16.73;13.60;;;;;;;8.79;78.20;95928.34;6164497;23;20211;-86
2023/05/04 04:13:51;;;;;;;17.50;14.10;;;;;;;8.84;78.09;95928.00;6215222;23;20241;-88
2023/05/04 04:16:20;;;;;;;15.37;12.70;;;;;;;8.89;78.05;95922.41;6189013;23;20240;-89
2023/05/04 04:18:45;;;;;;;15.17;13.57;;;;;;;8.94;77.95;95923.69;6189401;23;20252;-88
2023/05/04 04:21:14;;;;;;;18.63;13.63;;;;;;;9.01;77.87;95923.97;6165137;23;20193;-85
2023/05/04 04:23:39;;;;;;;14.60;12.93;;;;;;;9.08;77.63;95925.91;6161456;23;20169;-88
2023/05/04 04:26:10;;;;;;;15.53;12.77;;;;;;;9.14;77.51;95916.81;6162773;23;20204;-88
2023/05/04 04:28:51;;;;;;;15.87;13.70;;;;;;;9.27;77.05;95925.19;6189889;23;20182;-85
2023/05/04 04:31:17;;;;;;;20.93;13.77;;;;;;;9.20;76.93;95921.50;6188521;23;20304;-85
2023/05/04 04:33:43;;;;;;;16.57;14.67;;;;;;;9.36;76.61;95919.25;6165882;23;20162;-85
2023/05/04 04:36:09;;;;;;;16.87;14.03;;;;;;;9.50;76.09;95915.44;6164327;23;20257;-84
2023/05/04 04:38:36;;;;;;;17.53;14.57;;;;;;;9.62;75.83;95926.53;6165848;23;20189;-85
2023/05/04 04:41:02;;;;;;;17.47;14.50;;;;;;;9.65;75.33;95924.50;6164974;23;20162;-85
2023/05/04 04:43:27;;;;;;;17.17;14.63;;;;;;;9.71;74.72;95927.50;6189904;23;20192;-86
2023/05/04 04:45:52;;;;;;;17.00;14.40;;;;;;;9.86;74.17;95915.81;6164552;23;20196;-84
2023/05/04 04:48:20;;;;;;;17.20;15.07;;;;;;;10.00;74.28;95927.59;6190448;23;20600;-85
2023/05/04 04:50:45;;;;;;;16.73;13.87;;;;;;;10.23;73.61;95923.78;6166167;23;20180;-85
2023/05/04 04:53:10;;;;;;;16.60;13.70;;;;;;;10.56;72.66;95929.53;6165084;23;20608;-85
2023/05/04 04:55:36;;;;;;;17.17;14.90;;;;;;;11.21;70.21;95920.91;6164703;23;20189;-84
2023/05/04 04:58:01;;;;;;;15.77;13.60;;;;;;;12.20;66.59;95926.31;6187942;23;20166;-84
2023/05/04 05:00:26;;;;;;;14.93;13.17;;;;;;;13.09;62.22;95917.56;6164097;23;20585;-85
2023/05/04 05:02:53;;;;;;;14.13;12.23;;;;;;;13.67;60.06;95922.91;6215754;23;20182;-85
2023/05/04 05:05:18;;;;;;;14.73;12.23;;;;;;;14.02;58.18;95923.69;6189651;23;20149;-86
2023/05/04 05:07:43;;;;;;;13.47;11.63;;;;;;;14.16;56.29;95923.06;6164294;23;20192;-86
2023/05/04 05:10:09;;;;;;;14.07;12.50;;;;;;;14.88;53.78;95924.13;6165854;23;20182;-86
2023/05/04 05:12:34;;;;;;;12.80;11.40;;;;;;;15.55;53.19;95918.59;6190158;23;20510;-86
2023/05/04 05:15:00;;;;;;;13.87;12.47;;;;;;;15.67;51.93;95932.97;6166186;23;20162;-85
2023/05/04 05:17:25;;;;;;;13.47;12.13;;;;;;;15.10;52.46;95930.44;6164980;23;20186;-86
2023/05/04 05:19:51;;;;;;;13.75;12.10;;;;;;;14.83;53.62;95929.00;6190673;23;20192;-78
2023/05/04 05:22:22;;;;;;;14.80;13.20;;;;;;;14.35;54.62;95929.78;6165110;23;20185;-87
2023/05/04 05:24:47;;;;;;;13.70;12.23;;;;;;;13.92;56.97;95928.22;6165046;23;20188;-85
2023/05/04 05:27:13;;;;;;;14.77;13.10;;;;;;;13.36;60.13;95932.25;6190129;23;20486;-85
2023/05/04 05:29:38;;;;;;;14.87;13.03;;;;;;;13.56;58.60;95931.84;6165540;23;20178;-85
2023/05/04 05:32:04;;;;;;;15.13;13.63;;;;;;;12.89;61.71;95935.16;6190129;23;20181;-85
2023/05/04 05:34:29;;;;;;;15.30;13.67;;;;;;;13.13;61.22;95937.94;6189773;23;20162;-84
2023/05/04 05:36:54;;;;;;;15.57;13.93;;;;;;;12.98;61.25;95939.47;6163973;23;20184;-85
2023/05/04 05:39:20;;;;;;;15.53;13.73;;;;;;;12.88;63.06;95938.75;6163675;23;20194;-84
2023/05/04 05:41:45;;;;;;;16.17;13.77;;;;;;;13.13;62.38;95932.72;6164548;23;20162;-85
2023/05/04 05:44:11;;;;;;;16.77;13.07;;;;;;;13.04;62.98;95933.66;6164763;23;20158;-85
2023/05/04 05:46:36;;;;;;;17.53;13.67;;;;;;;13.04;62.34;95931.03;6188905;23;20225;-85
2023/05/04 05:49:01;;;;;;;15.13;13.60;;;;;;;13.29;61.91;95938.06;6189691;23;20623;-85
2023/05/04 05:51:27;;;;;;;14.70;13.23;;;;;;;13.47;61.63;95943.22;6190356;23;20247;-85
2023/05/04 05:53:52;;;;;;;16.13;12.73;;;;;;;14.11;58.86;95939.19;6196649;23;20153;-85
2023/05/04 05:56:17;;;;;;;13.87;12.47;;;;;;;15.41;55.54;95943.63;6164034;23;20200;-85
2023/05/04 05:58:42;;;;;;;14.55;11.55;;;;;;;16.81;51.55;95942.78;6189382;23;20195;-85
2023/05/04 06:01:08;;;;;;;12.60;11.35;;;;;;;17.98;47.29;95945.72;6165023;23;20744;-86
2023/05/04 06:03:33;;;;;;;11.07;9.98;;;;;;;19.40;42.17;95944.03;6189457;23;20177;-85
2023/05/04 06:05:58;;;;;;;14.88;10.35;;;;;;;20.31;41.57;95952.63;6188288;23;20158;-85
2023/05/04 06:08:24;;;;;;;12.02;10.43;;;;;;;22.56;35.48;95945.31;6189185;23;20161;-85
2023/05/04 06:10:50;;;;;;;11.75;10.55;;;;;;;21.02;37.82;95941.59;6188769;23;20580;-85
2023/05/04 06:13:15;;;;;;;11.98;10.77;;;;;;;22.40;35.92;95950.28;6190138;23;20154;-86
2023/05/04 06:15:41;;;;;;;11.05;9.88;;;;;;;23.34;34.30;95939.69;6188970;23;20189;-86
2023/05/04 06:18:06;;;;;;;10.95;9.95;;;;;;;23.90;33.01;95946.69;6192194;23;20153;-85
2023/05/04 06:20:31;;;;;;;10.27;9.38;;;;;;;22.87;34.86;95941.88;6164633;23;20571;-86
2023/05/04 06:22:57;;;;;;;9.95;9.02;;;;;;;23.67;32.88;95938.56;6189419;23;20626;-86
2023/05/04 06:25:22;;;;;;;9.98;8.98;;;;;;;23.50;33.93;95934.81;6189090;23;20173;-86
2023/05/04 06:27:47;;;;;;;10.50;9.50;;;;;;;23.74;32.50;95940.13;6188736;23;20208;-86
2023/05/04 06:30:13;;;;;;;9.10;8.20;;;;;;;25.24;29.83;95936.72;6164482;23;20771;-86
2023/05/04 06:32:39;;;;;;;10.63;9.65;;;;;;;24.06;31.43;95941.81;6214707;23;20157;-85
2023/05/04 06:35:07;;;;;;;10.45;9.45;;;;;;;26.08;29.18;95941.78;6189394;23;20158;-85
2023/05/04 06:37:32;;;;;;;10.50;9.35;;;;;;;24.25;30.62;95943.41;6163177;23;20154;-85
2023/05/04 06:39:58;;;;;;;10.15;9.23;;;;;;;25.22;30.05;95944.13;6163809;23;20193;-85
2023/05/04 06:42:23;;;;;;;9.55;8.65;;;;;;;25.48;29.48;95937.53;6164667;23;20550;-86
2023/05/04 06:44:50;;;;;;;9.93;8.95;;;;;;;25.11;29.57;95931.63;6213961;23;20650;-86
2023/05/04 06:47:15;;;;;;;9.60;8.70;;;;;;;24.45;30.03;95938.69;6189603;23;20192;-85
2023/05/04 06:49:40;;;;;;;10.82;9.82;;;;;;;23.70;31.04;95943.44;6164181;23;20599;-86
2023/05/04 06:52:06;;;;;;;9.85;8.88;;;;;;;23.91;31.26;95943.00;6181520;23;20157;-86
2023/05/04 06:54:31;;;;;;;9.70;8.70;;;;;;;24.10;30.72;95941.13;6213802;23;20160;-84
2023/05/04 06:56:56;;;;;;;9.23;8.35;;;;;;;23.56;31.84;95944.56;6212649;23;20177;-85
2023/05/04 06:59:22;;;;;;;10.20;9.05;;;;;;;23.92;30.83;95944.59;6170161;23;20231;-85
2023/05/04 07:01:47;;;;;;;9.18;8.27;;;;;;;23.66;31.62;95950.19;6163391;23;20160;-85
2023/05/04 07:04:15;;;;;;;11.00;9.43;;;;;;;22.72;32.69;95951.94;6163401;23;20158;-86
2023/05/04 07:06:41;;;;;;;9.98;8.98;;;;;;;23.18;32.64;95950.81;6188411;23;20150;-85
2023/05/04 07:09:07;;;;;;;9.90;8.90;;;;;;;22.49;33.79;95949.00;6162918;23;20228;-84
2023/05/04 07:11:32;;;;;;;11.40;9.77;;;;;;;22.70;33.30;95950.50;6187913;23;20527;-85
2023/05/04 07:13:57;;;;;;;9.55;8.65;;;;;;;22.87;33.65;95949.81;6189995;23;20181;-84
2023/05/04 07:16:23;;;;;;;10.10;9.02;;;;;;;23.32;32.94;95947.03;6162571;23;20202;-84
2023/05/04 07:18:48;;;;;;;9.55;8.55;;;;;;;23.00;33.39;95946.28;6166406;23;20182;-84
2023/05/04 07:21:13;;;;;;;11.85;9.40;;;;;;;22.69;33.39;95947.06;6164045;23;20168;-85
2023/05/04 07:23:39;;;;;;;10.45;8.60;;;;;;;21.04;35.86;95955.44;6144302;23;20289;-84
2023/05/04 07:26:06;;;;;;;9.45;8.55;;;;;;;20.75;36.18;95946.06;6134166;23;20170;-84
2023/05/04 07:28:32;;;;;;;9.95;8.95;;;;;;;21.64;35.87;95954.38;6130199;23;20186;-84
2023/05/04 07:30:57;;;;;;;9.75;8.77;;;;;;;21.63;35.84;95941.38;6108636;23;20184;-84
2023/05/04 07:33:22;;;;;;;9.55;8.65;;;;;;;21.27;36.57;95944.47;6106225;23;20238;-84
2023/05/04 07:35:47;;;;;;;9.77;8.30;;;;;;;21.29;37.37;95950.34;6105303;23;20186;-85
2023/05/04 07:38:13;;;;;;;9.13;8.30;;;;;;;20.82;37.74;95944.25;6131069;23;20158;-85
2023/05/04 07:40:38;;;;;;;11.05;9.10;;;;;;;20.42;38.35;95941.50;6131578;23;20155;-86
2023/05/04 07:43:04;;;;;;;10.00;9.00;;;;;;;19.88;39.76;95934.44;6106906;23;20496;-86
2023/05/04 07:45:29;;;;;;;9.75;8.68;;;;;;;19.06;41.82;95934.28;6106935;23;20162;-85
2023/05/04 07:47:55;;;;;;;9.10;8.30;;;;;;;19.09;42.26;95931.28;6106102;23;20592;-83
2023/05/04 07:50:20;;;;;;;9.10;8.20;;;;;;;18.24;43.20;95932.06;6107565;23;20198;-82
2023/05/04 07:52:48;;;;;;;8.23;7.43;;;;;;;18.34;43.96;95932.56;6107425;23;20159;-82
2023/05/04 07:55:13;;;;;;;9.38;8.48;;;;;;;18.04;43.09;95929.22;6108873;23;20169;-84
2023/05/04 07:57:38;;;;;;;8.75;8.00;;;;;;;17.35;44.47;95924.25;6156965;23;20546;-83
2023/05/04 08:00:04;;;;;;;11.07;8.75;;;;;;;16.96;44.16;95919.19;6107751;23;20541;-84
2023/05/04 08:02:30;;;;;;;9.20;7.65;;;;;;;17.03;45.75;95928.00;6108588;23;20221;-84
2023/05/04 08:04:55;;;;;;;8.15;7.35;;;;;;;17.11;44.16;95921.88;6108018;23;20214;-84
2023/05/04 08:07:21;;;;;;;7.65;6.90;;;;;;;17.45;45.30;95923.97;6131622;23;20608;-84
2023/05/04 08:09:46;;;;;;;10.60;7.85;;;;;;;17.27;45.09;95919.91;6132100;23;20175;-85
2023/05/04 08:12:12;;;;;;;8.55;7.75;;;;;;;17.42;44.58;95924.34;6108389;23;20624;-85
2023/05/04 08:14:38;;;;;;;8.35;7.55;;;;;;;17.38;44.72;95920.44;6108907;23;20242;-84
2023/05/04 08:17:03;;;;;;;8.07;7.32;;;;;;;17.39;44.55;95925.50;6156604;23;20175;-85
2023/05/04 08:19:29;;;;;;;7.72;6.93;;;;;;;17.14;45.02;95922.34;6106253;23;20237;-84
2023/05/04 08:21:55;;;;;;;8.27;7.50;;;;;;;17.41;43.99;95917.47;6106426;23;20166;-85
2023/05/04 08:24:20;;;;;;;8.60;7.50;;;;;;;17.14;44.34;95914.47;6131008;23;20163;-85
2023/05/04 08:26:46;;;;;;;7.95;6.90;;;;;;;17.42;44.38;95919.09;6106162;23;20159;-83
2023/05/04 08:29:11;;;;;;;8.63;7.40;;;;;;;17.43;43.37;95912.84;6106316;23;20227;-82
2023/05/04 08:31:36;;;;;;;7.80;7.10;;;;;;;16.94;44.16;95908.91;6106313;23;20163;-83
2023/05/04 08:34:02;;;;;;;7.75;6.97;;;;;;;17.23;44.42;95909.94;6107080;23;20628;-84
2023/05/04 08:36:28;;;;;;;7.00;5.88;;;;;;;17.52;44.48;95911.75;6105849;23;20266;-85
2023/05/04 08:38:54;;;;;;;8.40;6.07;;;;;;;17.67;43.15;95912.56;6130170;23;20203;-85
2023/05/04 08:41:19;;;;;;;7.25;6.45;;;;;;;17.53;41.67;95908.94;6106677;23;20163;-85
2023/05/04 08:43:45;;;;;;;8.73;6.63;;;;;;;18.06;42.58;95911.44;6106727;23;20166;-85
2023/05/04 08:46:11;;;;;;;6.00;5.40;;;;;;;18.30;42.97;95912.94;6105434;23;20209;-85
2023/05/04 08:48:37;;;;;;;7.00;6.10;;;;;;;18.33;42.50;95913.34;6131706;23;20175;-85
2023/05/04 08:51:05;;;;;;;8.25;6.03;;;;;;;18.37;42.34;95905.91;6107789;23;20159;-84
2023/05/04 08:53:31;;;;;;;6.03;5.53;;;;;;;18.53;40.59;95902.22;6106668;23;20239;-85
2023/05/04 08:56:02;;;;;;;5.68;5.18;;;;;;;18.37;40.42;95911.16;6105604;23;20209;-85
2023/05/04 08:58:27;;;;;;;6.63;5.07;;;;;;;18.40;40.19;95908.19;6131157;23;20151;-86
2023/05/04 09:00:53;;;;;;;6.00;5.45;;;;;;;18.27;40.47;95908.03;6106093;23;20165;-85
2023/05/04 09:03:19;;;;;;;5.78;5.28;;;;;;;18.45;41.00;95908.41;6154957;23;20151;-85
2023/05/04 09:05:45;;;;;;;5.80;5.10;;;;;;;18.83;41.04;95906.38;6154875;23;20479;-85
2023/05/04 09:08:10;;;;;;;4.78;4.38;;;;;;;19.00;40.71;95899.03;6105700;23;20163;-84
2023/05/04 09:10:36;;;;;;;5.63;4.93;;;;;;;18.99;39.49;95907.09;6105544;23;20166;-84
2023/05/04 09:13:01;;;;;;;4.78;4.38;;;;;;;18.90;39.76;95898.50;6105952;23;20159;-85
2023/05/04 09:15:26;;;;;;;5.60;5.10;;;;;;;19.12;40.56;95899.31;6106020;23;20166;-85
2023/05/04 09:18:01;;;;;;;5.53;4.95;;;;;;;19.04;39.31;95899.44;6105695;23;20194;-84
2023/05/04 09:20:26;;;;;;;5.57;5.00;;;;;;;18.96;39.81;95900.38;6106145;23;20201;-85
2023/05/04 09:23:06;;;;;;;6.25;4.57;;;;;;;19.29;39.77;95900.63;6130468;23;20167;-85
2023/05/04 09:25:33;;;;;;;5.35;4.85;;;;;;;19.45;38.92;95910.88;6106160;23;20604;-85
2023/05/04 09:27:59;;;;;;;5.20;4.70;;;;;;;19.50;38.74;95918.16;6129565;23;20181;-85
2023/05/04 09:30:25;;;;;;;5.18;4.68;;;;;;;19.67;38.46;95918.69;6154973;23;20178;-85
2023/05/04 09:32:51;;;;;;;5.50;5.00;;;;;;;19.70;38.33;95910.41;6131031;23;20159;-85
2023/05/04 09:35:26;;;;;;;5.72;4.47;;;;;;;19.67;38.97;95916.88;6131271;23;20234;-84
2023/05/04 09:37:52;;;;;;;9.43;5.93;;;;;;;19.38;38.88;95911.81;6128482;23;20143;-84
2023/05/04 09:40:17;;;;;;;5.70;4.95;;;;;;;19.60;38.85;95916.03;6106129;23;20226;-85
2023/05/04 09:42:43;;;;;;;6.10;5.07;;;;;;;19.55;38.66;95912.34;6130779;23;20158;-84
2023/05/04 09:45:09;;;;;;;5.70;4.68;;;;;;;19.66;38.02;95914.44;6157260;23;20151;-85
2023/05/04 09:47:39;;;;;;;5.43;4.85;;;;;;;19.87;37.74;95918.78;6129709;23;20155;-84
2023/05/04 09:50:14;;;;;;;6.13;4.75;;;;;;;19.23;37.68;95909.28;6154441;23;20175;-84
2023/05/04 09:52:41;;;;;;;5.60;4.45;;;;;;;19.92;39.11;95903.22;6131385;23;20250;-85
2023/05/04 09:55:08;;;;;;;4.70;4.30;;;;;;;20.00;37.63;95901.22;6131267;23;20159;-84
2023/05/04 09:57:34;;;;;;;5.18;4.68;;;;;;;20.25;38.23;95896.22;6082058;23;20265;-85
2023/05/04 10:00:00;;;;;;;5.90;5.30;;;;;;;20.08;38.74;95892.31;6131729;23;20263;-85
2023/05/04 10:02:26;;;;;;;6.70;5.28;;;;;;;20.05;38.89;95890.91;6106954;23;20163;-84
2023/05/04 10:04:51;;;;;;;4.95;4.43;;;;;;;20.32;38.61;95883.88;6130786;23;20155;-85
2023/05/04 10:07:17;;;;;;;5.35;4.85;;;;;;;20.51;37.47;95884.94;6129932;23;20155;-85
2023/05/04 10:09:42;;;;;;;6.10;4.55;;;;;;;20.58;37.79;95893.69;6105887;23;20269;-85
2023/05/04 10:12:07;;;;;;;5.38;4.88;;;;;;;20.15;38.41;95893.16;6106483;23;20159;-85
2023/05/04 10:14:33;;;;;;;4.80;4.35;;;;;;;20.85;37.47;95883.94;6131399;23;20175;-86
2023/05/04 10:17:10;;;;;;;4.07;3.78;;;;;;;21.20;37.18;95879.25;6129648;23;20530;-85
2023/05/04 10:19:58;;;;;;;5.85;4.28;;;;;;;21.10;36.86;95876.19;6131050;23;20629;-85
2023/05/04 10:22:55;;;;;;;4.70;4.20;;;;;;;21.29;37.86;95879.03;6155245;23;20159;-86
2023/05/04 10:25:45;;;;;;;4.90;4.50;;;;;;;21.12;38.33;95876.84;6138604;23;20155;-85
2023/05/04 10:28:38;;;;;;;5.38;4.22;;;;;;;21.33;36.16;95867.88;6134357;23;20234;-85
2023/05/04 10:31:05;;;;;;;6.15;5.55;;;;;;;21.07;35.38;95878.44;6154114;23;20155;-85
2023/05/04 10:33:40;;;;;;;6.10;4.88;;;;;;;21.12;35.02;95863.63;6138375;23;20166;-85
2023/05/04 10:36:06;;;;;;;5.00;4.55;;;;;;;21.27;36.29;95863.41;6158582;23;20497;-85
2023/05/04 10:38:33;;;;;;;4.65;4.25;;;;;;;21.77;36.66;95856.56;6158525;23;20171;-85
2023/05/04 10:40:59;;;;;;;4.20;3.80;;;;;;;21.72;37.13;95855.53;6132005;23;20605;-85
2023/05/04 10:43:24;;;;;;;5.32;4.40;;;;;;;21.84;33.52;95847.78;6109143;23;20166;-87
2023/05/04 10:45:50;;;;;;;4.57;3.78;;;;;;;21.31;35.98;95861.19;6157030;23;20590;-85
2023/05/04 10:48:15;;;;;;;7.15;5.38;;;;;;;21.14;36.53;95845.75;6134031;23;20163;-84
2023/05/04 10:50:46;;;;;;;7.00;4.63;;;;;;;21.61;35.08;95848.28;6108176;23;20159;-84
2023/05/04 10:53:12;;;;;;;5.85;4.68;;;;;;;21.38;34.99;95841.66;6132641;23;20159;-84
2023/05/04 10:55:42;;;;;;;4.75;4.35;;;;;;;21.17;34.61;95841.88;6133002;23;20182;-86
2023/05/04 10:58:08;;;;;;;4.93;4.53;;;;;;;21.23;35.98;95834.97;6132925;23;20154;-85
2023/05/04 11:00:35;;;;;;;5.00;4.50;;;;;;;21.25;35.77;95840.84;6108342;23;20210;-85
2023/05/04 11:03:01;;;;;;;4.65;4.15;;;;;;;21.32;35.45;95834.56;6130717;23;20724;-85
2023/05/04 11:05:38;;;;;;;4.30;3.85;;;;;;;21.34;35.12;95827.22;6106812;23;20159;-85
2023/05/04 11:08:24;;;;;;;3.67;3.38;;;;;;;21.50;36.40;95818.03;6156182;23;20147;-85
2023/05/04 11:11:00;;;;;;;5.43;4.35;;;;;;;21.57;36.08;95818.84;6119295;23;20214;-84
2023/05/04 11:13:27;;;;;;;4.28;3.85;;;;;;;21.78;35.43;95821.16;6146958;23;20162;-85
2023/05/04 11:15:53;;;;;;;5.80;4.38;;;;;;;21.46;35.60;95812.34;6156608;23;20306;-84
2023/05/04 11:18:27;;;;;;;7.28;4.35;;;;;;;21.76;35.01;95812.66;6105150;23;20307;-85
2023/05/04 11:20:54;;;;;;;4.90;4.50;;;;;;;21.56;35.34;95816.41;6105256;23;20167;-85
2023/05/04 11:23:20;;;;;;;4.93;4.43;;;;;;;21.73;34.55;95817.53;6154012;23;20166;-84
2023/05/04 11:25:45;;;;;;;4.28;3.88;;;;;;;22.06;35.09;95818.16;6103917;23;20183;-85
2023/05/04 11:28:11;;;;;;;4.70;4.30;;;;;;;22.29;34.76;95814.19;6153364;23;20159;-85
2023/05/04 11:32:03;;;;;;;;;;;;;;;;;;;;;